Lake Mills, Wisconsin
Current Conditions -  °F | °C
As of 12:55 PM on Tuesday 27 Jan 2015 (Local Time) from KRYV Reporting Station
Overcast Overcast  
Wind Chill: 23°   Ceiling: 3400
Heat Index: 29°   Visibility: 10mi
Dew Point: 19°   Wind: 5mph
Humidity: 66%   Direction: 60°ENE
Pressure: 30.18"   Gusts: NA
Location:  43.08°N, 88.91°W
Report Text: KRYV 271855Z AUTO 06004KT 10SM OVC034 M02/M07 A3018 RMK AO2 T10191075
Loading
Personal Weather Stations






























Interactive Weather Map New forecast layout! Learn more

10-Day Weather Forecast

Advertisements
Track Severe Weather on mobile